createdAt,value
2023-05-26T00:01:31.636Z,82.46
2023-05-26T00:03:58.355Z,82.65
2023-05-26T00:06:25.139Z,82.74
2023-05-26T00:08:51.744Z,82.75
2023-05-26T00:11:18.414Z,82.97
2023-05-26T00:13:45.128Z,83.40
2023-05-26T00:16:11.727Z,83.13
2023-05-26T00:18:38.231Z,83.63
2023-05-26T00:21:05.087Z,83.71
2023-05-26T00:23:31.769Z,83.62
2023-05-26T00:25:58.276Z,84.27
2023-05-26T00:28:24.810Z,83.62
2023-05-26T00:30:51.470Z,83.79
2023-05-26T00:33:18.131Z,84.11
2023-05-26T00:35:44.758Z,84.57
2023-05-26T00:38:11.450Z,84.08
2023-05-26T00:40:38.147Z,84.29
2023-05-26T00:43:04.661Z,84.23
2023-05-26T00:45:31.321Z,85.06
2023-05-26T00:47:57.872Z,84.62
2023-05-26T00:50:24.670Z,84.95
2023-05-26T00:52:52.237Z,84.93
2023-05-26T00:55:20.144Z,85.50
2023-05-26T00:57:46.801Z,85.18
2023-05-26T01:00:14.413Z,84.62
2023-05-26T01:02:41.311Z,85.33
2023-05-26T01:05:09.426Z,85.11
2023-05-26T01:07:37.621Z,85.34
2023-05-26T01:10:05.057Z,84.80
2023-05-26T01:13:09.202Z,85.31
2023-05-26T01:15:43.860Z,85.22
2023-05-26T01:18:14.920Z,85.53
2023-05-26T01:20:50.076Z,85.21
2023-05-26T01:23:35.579Z,84.70
2023-05-26T01:26:34.361Z,85.17
2023-05-26T01:29:06.675Z,85.39
2023-05-26T01:31:35.913Z,85.46
2023-05-26T01:34:03.380Z,85.52
2023-05-26T01:36:30.425Z,85.95
2023-05-26T01:38:57.299Z,85.38
2023-05-26T01:41:45.857Z,85.55
2023-05-26T01:44:42.157Z,85.47
2023-05-26T01:47:09.252Z,85.45
2023-05-26T01:49:40.953Z,85.49
2023-05-26T01:52:11.245Z,86.11
2023-05-26T01:54:45.861Z,86.21
2023-05-26T01:57:13.871Z,86.28
2023-05-26T01:59:40.910Z,86.60
2023-05-26T02:02:07.633Z,86.82
2023-05-26T02:04:34.558Z,86.21
2023-05-26T02:07:04.040Z,86.83
2023-05-26T02:09:33.342Z,86.87
2023-05-26T02:12:00.155Z,86.59
2023-05-26T02:14:26.637Z,86.97
2023-05-26T02:16:54.064Z,86.97
2023-05-26T02:19:20.576Z,87.67
2023-05-26T02:21:47.151Z,86.88
2023-05-26T02:24:13.638Z,86.92
2023-05-26T02:26:40.187Z,87.46
2023-05-26T02:29:06.757Z,87.79
2023-05-26T02:31:42.003Z,87.82
2023-05-26T02:34:11.337Z,87.56
2023-05-26T02:36:37.926Z,88.00
2023-05-26T02:39:04.416Z,87.89
2023-05-26T02:41:30.904Z,88.06
2023-05-26T02:43:57.432Z,88.04
2023-05-26T02:46:23.997Z,88.07
2023-05-26T02:48:50.556Z,88.29
2023-05-26T02:51:17.068Z,88.03
2023-05-26T02:53:44.906Z,88.16
2023-05-26T02:56:11.627Z,88.19
2023-05-26T02:58:38.207Z,88.68
2023-05-26T03:01:04.777Z,88.76
2023-05-26T03:03:31.518Z,88.84
2023-05-26T03:05:59.968Z,88.96
2023-05-26T03:08:26.631Z,88.40
2023-05-26T03:11:10.099Z,88.58
2023-05-26T03:13:38.217Z,88.49
2023-05-26T03:16:05.455Z,89.02
2023-05-26T03:18:33.406Z,89.33
2023-05-26T03:21:00.053Z,88.73
2023-05-26T03:23:26.591Z,88.81
2023-05-26T03:25:53.130Z,89.41
2023-05-26T03:28:19.690Z,89.31
2023-05-26T03:30:46.193Z,89.36
2023-05-26T03:33:12.747Z,89.27
2023-05-26T03:35:39.327Z,88.81
2023-05-26T03:38:05.916Z,88.60
2023-05-26T03:40:32.465Z,89.27
2023-05-26T03:42:58.996Z,89.22
2023-05-26T03:45:25.516Z,89.20
2023-05-26T03:47:52.223Z,88.72
2023-05-26T03:50:18.865Z,88.55
2023-05-26T03:52:45.809Z,88.93
2023-05-26T03:55:12.720Z,88.47
2023-05-26T03:57:39.721Z,88.19
2023-05-26T04:00:08.494Z,88.94
2023-05-26T04:02:35.399Z,88.81
2023-05-26T04:05:02.110Z,88.57
2023-05-26T04:07:28.687Z,88.59
2023-05-26T04:09:55.482Z,88.58
2023-05-26T04:12:23.603Z,88.86
2023-05-26T04:14:50.126Z,88.92
2023-05-26T04:17:19.661Z,88.56
2023-05-26T04:19:46.192Z,88.84
2023-05-26T04:22:13.464Z,89.02
2023-05-26T04:24:39.958Z,88.39
2023-05-26T04:27:08.792Z,87.95
2023-05-26T04:29:35.505Z,87.89
2023-05-26T04:32:02.218Z,87.70
2023-05-26T04:34:29.697Z,87.28
2023-05-26T04:36:57.084Z,87.11
2023-05-26T04:39:23.701Z,87.15
2023-05-26T04:41:51.123Z,86.66
2023-05-26T04:44:19.726Z,87.05
2023-05-26T04:46:47.178Z,86.35
2023-05-26T04:49:13.937Z,85.87
2023-05-26T04:51:40.526Z,85.93
2023-05-26T04:54:07.073Z,85.34
2023-05-26T04:56:33.761Z,86.24
2023-05-26T04:59:00.590Z,85.97
2023-05-26T05:01:27.370Z,85.93
2023-05-26T05:03:54.005Z,84.89
2023-05-26T05:06:20.742Z,84.77
2023-05-26T05:08:47.484Z,84.50
2023-05-26T05:11:14.103Z,84.49
2023-05-26T05:13:40.818Z,83.80
2023-05-26T05:16:07.766Z,83.74
2023-05-26T05:18:34.354Z,83.53
2023-05-26T05:21:01.059Z,83.20
2023-05-26T05:23:27.806Z,81.59
2023-05-26T05:25:54.438Z,82.20
2023-05-26T05:28:20.990Z,82.98
2023-05-26T05:30:47.873Z,82.06
2023-05-26T05:33:15.155Z,81.75
2023-05-26T05:35:41.758Z,81.28
2023-05-26T05:38:08.487Z,81.07
2023-05-26T05:40:35.150Z,80.74
2023-05-26T05:43:02.125Z,79.27
2023-05-26T05:45:29.043Z,79.37
2023-05-26T05:47:56.107Z,79.61
2023-05-26T05:50:22.813Z,79.53
2023-05-26T05:52:49.354Z,79.02
2023-05-26T05:55:16.310Z,79.04
2023-05-26T05:57:42.992Z,79.58
2023-05-26T06:00:10.886Z,78.67
2023-05-26T06:02:38.098Z,78.82
2023-05-26T06:05:05.151Z,78.63
2023-05-26T06:07:31.696Z,78.34
2023-05-26T06:09:58.355Z,77.14
2023-05-26T06:12:25.280Z,78.04
2023-05-26T06:14:52.064Z,77.22
2023-05-26T06:17:18.577Z,77.08
2023-05-26T06:19:45.085Z,77.32
2023-05-26T06:22:11.620Z,76.53
2023-05-26T06:24:38.241Z,76.75
2023-05-26T06:27:05.235Z,76.19
2023-05-26T06:29:31.776Z,76.49
2023-05-26T06:31:58.313Z,76.78
2023-05-26T06:34:24.943Z,75.63
2023-05-26T06:36:52.217Z,75.95
2023-05-26T06:39:18.784Z,76.11
2023-05-26T06:41:45.379Z,75.39
2023-05-26T06:44:11.944Z,75.06
2023-05-26T06:46:38.480Z,74.22
2023-05-26T06:49:05.071Z,74.24
2023-05-26T06:51:31.827Z,73.28
2023-05-26T06:53:58.547Z,73.37
2023-05-26T06:56:28.603Z,72.90
2023-05-26T06:58:55.209Z,71.61
2023-05-26T07:01:21.774Z,71.79
2023-05-26T07:03:48.803Z,70.17
2023-05-26T07:06:15.385Z,70.33
2023-05-26T07:08:41.948Z,70.65
2023-05-26T07:11:11.487Z,69.46
2023-05-26T07:13:37.964Z,68.79
2023-05-26T07:16:04.706Z,67.55
2023-05-26T07:18:31.245Z,68.89
2023-05-26T07:20:57.816Z,69.09
2023-05-26T07:23:24.502Z,67.86
2023-05-26T07:25:51.195Z,67.60
2023-05-26T07:28:17.711Z,67.62
2023-05-26T07:30:44.434Z,66.44
2023-05-26T07:33:12.377Z,67.51
2023-05-26T07:35:38.983Z,60.02
2023-05-26T07:38:05.778Z,52.28
2023-05-26T07:40:35.903Z,49.37
2023-05-26T07:43:03.617Z,46.79
2023-05-26T07:45:30.259Z,43.94
2023-05-26T07:47:56.837Z,43.44
2023-05-26T07:50:23.419Z,41.48
2023-05-26T07:52:50.150Z,40.72
2023-05-26T07:55:16.737Z,39.37
2023-05-26T07:57:43.417Z,38.14
2023-05-26T08:00:11.918Z,39.43
2023-05-26T08:02:41.455Z,39.96
2023-05-26T08:05:08.575Z,38.12
2023-05-26T08:07:35.309Z,36.42
2023-05-26T08:10:04.390Z,36.89
2023-05-26T08:12:31.017Z,36.05
2023-05-26T08:14:58.306Z,34.36
2023-05-26T08:17:25.350Z,35.03
2023-05-26T08:19:52.290Z,36.56
2023-05-26T08:22:18.850Z,34.52
2023-05-26T08:24:45.444Z,37.24
2023-05-26T08:27:11.971Z,35.77
2023-05-26T08:29:38.522Z,33.81
2023-05-26T08:32:05.609Z,33.79
2023-05-26T08:34:32.188Z,34.32
2023-05-26T08:36:58.768Z,35.40
2023-05-26T08:39:25.416Z,33.91
2023-05-26T08:42:01.076Z,34.11
2023-05-26T08:44:27.893Z,33.97
2023-05-26T08:46:56.893Z,33.07
2023-05-26T08:49:25.253Z,31.75
2023-05-26T08:52:07.620Z,33.72
2023-05-26T08:54:34.353Z,33.79
2023-05-26T08:57:04.196Z,34.19
2023-05-26T08:59:32.754Z,33.17
2023-05-26T09:02:00.179Z,33.04
2023-05-26T09:04:27.257Z,34.25
2023-05-26T09:07:08.660Z,34.80
2023-05-26T09:09:41.680Z,34.97
2023-05-26T09:12:12.791Z,36.10
2023-05-26T09:14:41.195Z,35.86
2023-05-26T09:17:07.847Z,36.45
2023-05-26T09:19:34.737Z,35.56
2023-05-26T09:22:10.044Z,35.47
2023-05-26T09:24:50.632Z,36.55
2023-05-26T09:27:18.731Z,36.86
2023-05-26T09:29:55.806Z,36.09
2023-05-26T09:32:27.382Z,39.44
2023-05-26T09:34:59.896Z,38.04
2023-05-26T09:37:29.350Z,39.18
2023-05-26T09:40:06.953Z,39.14
2023-05-26T09:42:33.565Z,38.28
2023-05-26T09:45:02.844Z,40.91
2023-05-26T09:47:34.348Z,36.31
2023-05-26T09:50:06.084Z,37.96
2023-05-26T09:52:34.366Z,38.59
2023-05-26T09:55:01.294Z,41.57
2023-05-26T09:57:29.850Z,40.15
2023-05-26T09:59:58.285Z,39.92
2023-05-26T10:02:27.721Z,39.61
2023-05-26T10:04:54.726Z,42.53
2023-05-26T10:07:22.385Z,40.54
2023-05-26T10:09:54.387Z,40.78
2023-05-26T10:12:31.535Z,40.73
2023-05-26T10:14:58.697Z,39.83
2023-05-26T10:17:30.061Z,41.97
2023-05-26T10:19:59.485Z,39.12
2023-05-26T10:22:29.579Z,40.39
2023-05-26T10:25:04.257Z,40.94
2023-05-26T10:27:51.988Z,40.09
2023-05-26T10:30:21.379Z,40.28
2023-05-26T10:32:49.070Z,39.76
2023-05-26T10:35:32.722Z,41.29
2023-05-26T10:38:02.257Z,42.27
2023-05-26T10:40:43.959Z,42.03
2023-05-26T10:43:23.497Z,42.94
2023-05-26T10:46:00.266Z,41.47
2023-05-26T10:48:36.376Z,40.95
2023-05-26T10:51:03.017Z,41.50
2023-05-26T10:53:40.503Z,41.41
2023-05-26T10:56:09.914Z,39.51
2023-05-26T10:58:48.519Z,42.00
2023-05-26T11:01:36.405Z,40.74
2023-05-26T11:04:06.066Z,40.72
2023-05-26T11:06:46.268Z,41.14
2023-05-26T11:09:13.058Z,40.47
2023-05-26T11:11:51.346Z,41.17
2023-05-26T11:14:42.659Z,40.40
2023-05-26T11:17:09.235Z,39.42
2023-05-26T11:19:38.284Z,40.42
2023-05-26T11:22:08.165Z,41.71
2023-05-26T11:24:35.151Z,40.68
2023-05-26T11:27:06.936Z,41.71
2023-05-26T11:29:33.933Z,39.64
2023-05-26T11:32:00.794Z,40.87
2023-05-26T11:34:27.668Z,40.72
2023-05-26T11:36:55.103Z,41.19
2023-05-26T11:39:23.062Z,40.85
2023-05-26T11:41:50.334Z,38.05
2023-05-26T11:44:17.166Z,39.76
2023-05-26T11:46:45.365Z,38.69
2023-05-26T11:49:21.305Z,38.70
2023-05-26T11:51:52.132Z,39.78
2023-05-26T11:54:20.351Z,38.23
2023-05-26T11:56:47.866Z,38.88
2023-05-26T11:59:21.469Z,38.95
2023-05-26T12:01:49.690Z,40.28
2023-05-26T12:04:27.808Z,39.09
2023-05-26T12:06:55.432Z,39.22
2023-05-26T12:09:24.032Z,39.91
2023-05-26T12:11:54.466Z,40.10
2023-05-26T12:14:23.712Z,38.59
2023-05-26T12:16:52.889Z,39.08
2023-05-26T12:19:21.774Z,38.03
2023-05-26T12:22:01.195Z,38.25
2023-05-26T12:24:36.747Z,38.63
2023-05-26T12:27:21.514Z,36.98
2023-05-26T12:29:48.164Z,37.21
2023-05-26T12:32:14.745Z,38.24
2023-05-26T12:34:42.776Z,38.40
2023-05-26T12:37:09.350Z,36.89
2023-05-26T12:39:36.932Z,37.05
2023-05-26T12:42:03.952Z,36.56
2023-05-26T12:44:30.655Z,37.29
2023-05-26T12:46:57.343Z,37.36
2023-05-26T12:49:24.012Z,36.70
2023-05-26T12:51:50.517Z,36.45
2023-05-26T12:54:17.122Z,35.06
2023-05-26T12:56:43.745Z,37.00
2023-05-26T12:59:19.111Z,36.45
2023-05-26T13:01:47.837Z,35.97
2023-05-26T13:04:14.978Z,36.63
2023-05-26T13:06:41.715Z,37.51
2023-05-26T13:09:08.494Z,36.69
2023-05-26T13:11:35.183Z,35.44
2023-05-26T13:14:01.723Z,36.13
2023-05-26T13:16:28.306Z,35.09
2023-05-26T13:18:54.939Z,35.80
2023-05-26T13:21:21.684Z,34.82
2023-05-26T13:23:52.544Z,34.52
2023-05-26T13:26:19.677Z,33.88
2023-05-26T13:28:46.321Z,34.32
2023-05-26T13:31:12.968Z,34.07
2023-05-26T13:33:39.558Z,34.06
2023-05-26T13:36:06.477Z,34.83
2023-05-26T13:38:32.963Z,34.27
2023-05-26T13:41:00.150Z,34.49
2023-05-26T13:43:27.440Z,34.05
2023-05-26T13:45:54.824Z,33.80
2023-05-26T13:48:23.489Z,34.68
2023-05-26T13:50:50.101Z,34.11
2023-05-26T13:53:16.760Z,33.86
2023-05-26T13:55:45.254Z,34.41
2023-05-26T13:58:11.895Z,36.25
2023-05-26T14:00:38.424Z,35.56
2023-05-26T14:03:05.736Z,35.90
2023-05-26T14:05:32.759Z,36.26
2023-05-26T14:07:59.417Z,35.32
2023-05-26T14:10:28.223Z,34.40
2023-05-26T14:12:54.873Z,34.75
2023-05-26T14:15:21.409Z,35.05
2023-05-26T14:17:56.379Z,35.62
2023-05-26T14:21:50.212Z,36.23
2023-05-26T14:23:23.691Z,36.61
2023-05-26T14:25:51.203Z,36.41
2023-05-26T14:28:17.965Z,36.66
2023-05-26T14:30:44.524Z,37.45
2023-05-26T14:33:11.233Z,36.53
2023-05-26T14:35:37.869Z,38.34
2023-05-26T14:38:04.532Z,38.27
2023-05-26T14:40:32.618Z,38.53
2023-05-26T14:42:59.369Z,38.63
2023-05-26T14:45:26.405Z,38.00
2023-05-26T14:47:53.697Z,38.81
2023-05-26T14:50:22.801Z,37.50
2023-05-26T14:52:50.148Z,37.92
2023-05-26T14:55:18.413Z,38.20
2023-05-26T14:57:45.241Z,38.01
2023-05-26T15:00:13.126Z,37.08
2023-05-26T15:02:40.592Z,37.38
2023-05-26T15:05:09.199Z,38.03
2023-05-26T15:07:35.914Z,37.91
2023-05-26T15:10:03.107Z,38.44
2023-05-26T15:12:29.768Z,38.83
2023-05-26T15:14:57.410Z,38.43
2023-05-26T15:17:23.931Z,38.40
2023-05-26T15:19:50.867Z,39.22
2023-05-26T15:22:17.803Z,38.53
2023-05-26T15:24:44.365Z,38.72
2023-05-26T15:27:12.509Z,38.86
2023-05-26T15:29:42.562Z,39.07
2023-05-26T15:32:09.277Z,39.15
2023-05-26T15:34:35.897Z,40.55
2023-05-26T15:37:02.483Z,39.13
2023-05-26T15:39:29.268Z,40.60
2023-05-26T15:41:55.980Z,38.30
2023-05-26T15:44:22.717Z,40.68
2023-05-26T15:46:49.262Z,39.95
2023-05-26T15:49:16.513Z,40.86
2023-05-26T15:51:43.049Z,40.16
2023-05-26T15:54:09.555Z,40.47
2023-05-26T15:56:36.265Z,39.47
2023-05-26T15:59:02.792Z,41.14
2023-05-26T16:01:29.693Z,41.46
2023-05-26T16:03:56.450Z,39.99
2023-05-26T16:06:23.689Z,41.29
2023-05-26T16:08:50.429Z,40.98
2023-05-26T16:11:17.400Z,40.22
2023-05-26T16:13:44.256Z,40.14
2023-05-26T16:16:10.958Z,40.81
2023-05-26T16:18:37.751Z,40.67
2023-05-26T16:21:05.587Z,41.08
2023-05-26T16:23:32.211Z,42.55
2023-05-26T16:26:00.177Z,40.72
2023-05-26T16:28:27.255Z,41.12
2023-05-26T16:30:54.192Z,41.99
2023-05-26T16:33:20.915Z,41.96
2023-05-26T16:35:50.741Z,39.92
2023-05-26T16:38:18.366Z,39.10
2023-05-26T16:40:44.939Z,38.12
2023-05-26T16:43:17.144Z,37.39
2023-05-26T16:45:46.683Z,37.00
2023-05-26T16:48:13.276Z,37.45
2023-05-26T16:50:40.006Z,38.18
2023-05-26T16:53:10.881Z,37.28
2023-05-26T16:55:38.263Z,37.18
2023-05-26T16:58:05.891Z,37.42
2023-05-26T17:00:32.831Z,38.77
2023-05-26T17:02:59.640Z,39.11
2023-05-26T17:05:26.380Z,40.13
2023-05-26T17:07:53.072Z,37.96
2023-05-26T17:10:19.786Z,39.54
2023-05-26T17:12:46.333Z,40.41
2023-05-26T17:15:12.866Z,41.59
2023-05-26T17:17:39.427Z,43.21
2023-05-26T17:20:06.509Z,44.12
2023-05-26T17:22:33.154Z,44.99
2023-05-26T17:24:59.699Z,45.87
2023-05-26T17:27:26.528Z,45.57
2023-05-26T17:29:53.048Z,46.64
2023-05-26T17:32:19.714Z,47.07
2023-05-26T17:34:46.309Z,47.20
2023-05-26T17:37:14.768Z,46.99
2023-05-26T17:39:42.083Z,47.21
2023-05-26T17:42:09.220Z,48.55
2023-05-26T17:44:36.303Z,48.03
2023-05-26T17:47:04.104Z,48.56
2023-05-26T17:49:30.725Z,48.96
2023-05-26T17:51:57.209Z,49.89
2023-05-26T17:54:29.074Z,50.06
2023-05-26T17:56:57.254Z,49.85
2023-05-26T17:59:24.954Z,49.87
2023-05-26T18:01:51.898Z,50.25
2023-05-26T18:04:18.634Z,51.34
2023-05-26T18:06:45.381Z,51.08
2023-05-26T18:09:11.997Z,50.61
2023-05-26T18:11:38.571Z,50.89
2023-05-26T18:14:05.149Z,51.51
2023-05-26T18:16:32.218Z,52.59
2023-05-26T18:18:59.911Z,52.74
2023-05-26T18:21:27.133Z,53.36
2023-05-26T18:23:53.954Z,52.51
2023-05-26T18:26:23.046Z,52.23
2023-05-26T18:28:50.457Z,51.42
2023-05-26T18:31:16.999Z,51.66
2023-05-26T18:33:43.557Z,51.81
2023-05-26T18:36:10.295Z,52.39
2023-05-26T18:38:37.066Z,52.63
2023-05-26T18:41:03.714Z,52.88
2023-05-26T18:43:30.542Z,54.10
2023-05-26T18:45:57.158Z,54.34
2023-05-26T18:48:23.851Z,55.32
2023-05-26T18:50:50.730Z,54.95
2023-05-26T18:53:17.281Z,54.80
2023-05-26T18:55:44.045Z,56.71
2023-05-26T18:58:10.759Z,55.59
2023-05-26T19:00:39.918Z,56.26
2023-05-26T19:03:07.338Z,56.83
2023-05-26T19:05:34.160Z,56.05
2023-05-26T19:08:00.824Z,56.78
2023-05-26T19:10:27.446Z,57.28
2023-05-26T19:12:54.009Z,57.09
2023-05-26T19:15:20.585Z,58.58
2023-05-26T19:17:47.226Z,58.50
2023-05-26T19:20:14.033Z,58.92
2023-05-26T19:22:41.512Z,58.77
2023-05-26T19:25:08.653Z,58.70
2023-05-26T19:27:35.229Z,60.28
2023-05-26T19:30:01.933Z,60.18
2023-05-26T19:32:29.536Z,59.83
2023-05-26T19:34:56.057Z,60.55
2023-05-26T19:37:22.603Z,61.42
2023-05-26T19:39:49.098Z,61.33
2023-05-26T19:42:16.921Z,62.03
2023-05-26T19:44:43.596Z,61.39
2023-05-26T19:47:10.197Z,61.60
2023-05-26T19:49:36.885Z,62.58
2023-05-26T19:52:03.703Z,62.35
2023-05-26T19:54:30.423Z,63.25
2023-05-26T19:56:57.239Z,63.51
2023-05-26T19:59:24.046Z,62.61
2023-05-26T20:01:50.592Z,63.97
2023-05-26T20:04:17.186Z,64.04
2023-05-26T20:06:44.225Z,64.20
2023-05-26T20:09:11.183Z,63.78
2023-05-26T20:11:37.718Z,65.00
2023-05-26T20:14:05.063Z,64.23
2023-05-26T20:16:32.498Z,65.09
2023-05-26T20:19:00.038Z,65.21
2023-05-26T20:21:26.677Z,65.86
2023-05-26T20:23:53.379Z,65.98
2023-05-26T20:26:20.015Z,67.35
2023-05-26T20:28:49.050Z,66.72
2023-05-26T20:31:18.615Z,66.40
2023-05-26T20:33:46.541Z,66.50
2023-05-26T20:36:14.089Z,66.90
2023-05-26T20:38:41.546Z,66.52
2023-05-26T20:41:08.835Z,67.31
2023-05-26T20:43:35.482Z,67.86
2023-05-26T20:46:02.282Z,67.52
2023-05-26T20:48:28.885Z,67.77
2023-05-26T20:50:55.674Z,67.53
2023-05-26T20:53:22.614Z,67.87
2023-05-26T20:55:49.178Z,68.97
2023-05-26T20:58:15.957Z,69.00
2023-05-26T21:00:42.463Z,69.62
2023-05-26T21:03:09.113Z,70.02
2023-05-26T21:05:36.087Z,69.29
2023-05-26T21:08:02.696Z,69.90
2023-05-26T21:10:29.171Z,69.76
2023-05-26T21:12:56.240Z,70.58
2023-05-26T21:15:22.998Z,70.38
2023-05-26T21:17:49.716Z,70.77
2023-05-26T21:20:16.560Z,71.38
2023-05-26T21:22:43.113Z,71.14
2023-05-26T21:25:09.930Z,70.73
2023-05-26T21:27:36.569Z,71.14
2023-05-26T21:30:04.017Z,72.27
2023-05-26T21:32:30.667Z,72.17
2023-05-26T21:34:57.203Z,72.54
2023-05-26T21:37:23.713Z,72.42
2023-05-26T21:39:50.233Z,72.26
2023-05-26T21:42:16.720Z,72.06
2023-05-26T21:44:43.252Z,72.78
2023-05-26T21:47:09.747Z,73.05
2023-05-26T21:49:36.293Z,72.28
2023-05-26T21:52:03.686Z,72.27
2023-05-26T21:54:30.426Z,72.78
2023-05-26T21:56:56.983Z,73.00
2023-05-26T21:59:23.522Z,73.20
2023-05-26T22:01:50.214Z,72.62
2023-05-26T22:04:16.864Z,72.96
2023-05-26T22:06:43.451Z,73.11
2023-05-26T22:09:09.973Z,73.34
2023-05-26T22:11:36.491Z,73.18
2023-05-26T22:14:10.222Z,73.45
2023-05-26T22:16:44.152Z,73.95
2023-05-26T22:19:11.429Z,73.94
2023-05-26T22:21:37.957Z,73.79
2023-05-26T22:24:04.715Z,73.82
2023-05-26T22:26:31.289Z,74.14
2023-05-26T22:28:57.903Z,75.22
2023-05-26T22:31:24.911Z,74.21
2023-05-26T22:33:51.508Z,74.54
2023-05-26T22:36:17.986Z,75.16
2023-05-26T22:38:44.504Z,73.93
2023-05-26T22:41:11.054Z,75.02
2023-05-26T22:43:37.535Z,75.43
2023-05-26T22:46:04.170Z,75.20
2023-05-26T22:48:30.938Z,75.63
2023-05-26T22:50:58.033Z,74.87
2023-05-26T22:53:24.660Z,75.52
2023-05-26T22:56:00.363Z,74.67
2023-05-26T22:58:35.709Z,75.33
2023-05-26T23:01:02.864Z,75.66
2023-05-26T23:03:29.492Z,75.82
2023-05-26T23:05:56.771Z,75.67
2023-05-26T23:08:23.532Z,76.17
2023-05-26T23:10:50.221Z,76.34
2023-05-26T23:13:21.581Z,76.02
2023-05-26T23:15:48.189Z,76.20
2023-05-26T23:18:14.714Z,76.70
2023-05-26T23:20:41.292Z,76.76
2023-05-26T23:23:07.815Z,77.17
2023-05-26T23:25:34.461Z,77.52
2023-05-26T23:28:00.984Z,76.97
2023-05-26T23:30:28.034Z,77.80
2023-05-26T23:32:54.601Z,77.08
2023-05-26T23:35:21.234Z,77.77
2023-05-26T23:37:47.730Z,77.62
2023-05-26T23:40:14.220Z,76.80
2023-05-26T23:42:40.793Z,77.85
2023-05-26T23:45:08.225Z,77.88
2023-05-26T23:47:34.918Z,77.88
2023-05-26T23:50:01.916Z,78.29
2023-05-26T23:52:28.512Z,78.25
2023-05-26T23:54:55.092Z,78.42
2023-05-26T23:57:21.600Z,78.55
2023-05-26T23:59:48.065Z,78.66
